ARG1391 SUMU-SABE
Flight info
| Callsign | ARG1391 |
|---|---|
| Flight time | 0h 34m |
| Altitude | 28000 |
| Route | DAGUS DCT UGIMI UGIMI8Q |
| Aircraft | B738/M-SDE2E3FGHIRWXY/LB1 |
Departure
| Time | 2026-05-05 00:46 |
|---|---|
| Airport | Carrasco General Cesáreo L. Berisso International Airport (SUMU) |
Arrival
| Time | 2026-05-05 01:21 |
|---|---|
| Airport | Aeroparque Jorge Newbery (SABE) |
| Time | Latitude | Longitude | Altitude | Speed | Heading |
|---|---|---|---|---|---|
| 2026-05-05 00:43 | -34.84010 | -56.03062 | 65 ft | 8 kts | 266° |
| 2026-05-05 00:44 | -34.84032 | -56.03117 | 62 ft | 9 kts | 243° |
| 2026-05-05 00:44 | -34.84060 | -56.03188 | 63 ft | 10 kts | 245° |
| 2026-05-05 00:44 | -34.84094 | -56.03264 | 64 ft | 11 kts | 240° |
| 2026-05-05 00:44 | -34.84135 | -56.03353 | 67 ft | 13 kts | 243° |
| 2026-05-05 00:45 | -34.84190 | -56.03478 | 66 ft | 17 kts | 240° |
| 2026-05-05 00:45 | -34.84238 | -56.03587 | 60 ft | 9 kts | 244° |
| 2026-05-05 00:45 | -34.84241 | -56.03657 | 65 ft | 10 kts | 296° |
| 2026-05-05 00:45 | -34.84196 | -56.03663 | 62 ft | 0 kts | 51° |
| 2026-05-05 00:46 | -34.84148 | -56.03588 | 64 ft | 45 kts | 52° |
| 2026-05-05 00:46 | -34.83788 | -56.02995 | 61 ft | 126 kts | 53° |
| 2026-05-05 00:46 | -34.83138 | -56.01930 | 307 ft | 174 kts | 53° |
| 2026-05-05 00:46 | -34.82437 | -56.00767 | 1322 ft | 171 kts | 52° |
| 2026-05-05 00:47 | -34.81891 | -55.99443 | 2294 ft | 180 kts | 69° |
| 2026-05-05 00:47 | -34.81768 | -55.97840 | 2865 ft | 200 kts | 97° |
| 2026-05-05 00:47 | -34.82311 | -55.96259 | 3449 ft | 212 kts | 134° |
| 2026-05-05 00:47 | -34.83582 | -55.95258 | 3653 ft | 234 kts | 171° |
| 2026-05-05 00:48 | -34.85254 | -55.95393 | 3898 ft | 253 kts | 205° |
| 2026-05-05 00:48 | -34.86598 | -55.96746 | 4545 ft | 254 kts | 240° |
| 2026-05-05 00:48 | -34.87376 | -55.98681 | 5424 ft | 253 kts | 247° |
| 2026-05-05 00:48 | -34.88140 | -56.00625 | 6272 ft | 255 kts | 243° |
| 2026-05-05 00:49 | -34.89132 | -56.02411 | 7035 ft | 260 kts | 233° |
| 2026-05-05 00:49 | -34.90402 | -56.03987 | 7792 ft | 265 kts | 224° |
| 2026-05-05 00:49 | -34.91886 | -56.05375 | 8529 ft | 271 kts | 218° |
| 2026-05-05 00:49 | -34.93356 | -56.06802 | 9237 ft | 270 kts | 237° |
| 2026-05-05 00:50 | -34.93999 | -56.08892 | 9978 ft | 266 kts | 267° |
| 2026-05-05 00:50 | -34.94071 | -56.11193 | 10411 ft | 280 kts | 267° |
| 2026-05-05 00:50 | -34.94192 | -56.13666 | 10575 ft | 303 kts | 266° |
| 2026-05-05 00:50 | -34.94339 | -56.16274 | 10852 ft | 319 kts | 266° |
| 2026-05-05 00:51 | -34.94498 | -56.19065 | 10975 ft | 340 kts | 266° |
| 2026-05-05 00:51 | -34.94663 | -56.22018 | 11126 ft | 356 kts | 266° |
| 2026-05-05 00:51 | -34.94834 | -56.25076 | 11519 ft | 364 kts | 266° |
| 2026-05-05 00:51 | -34.95007 | -56.28176 | 12076 ft | 366 kts | 265° |
| 2026-05-05 00:52 | -34.95180 | -56.31244 | 12653 ft | 367 kts | 265° |
| 2026-05-05 00:52 | -34.95357 | -56.34381 | 13166 ft | 370 kts | 265° |
| 2026-05-05 00:52 | -34.95536 | -56.37533 | 13684 ft | 373 kts | 265° |
| 2026-05-05 00:52 | -34.95712 | -56.40666 | 14155 ft | 375 kts | 265° |
| 2026-05-05 00:53 | -34.95890 | -56.43850 | 14652 ft | 376 kts | 265° |
| 2026-05-05 00:53 | -34.96068 | -56.47035 | 15140 ft | 377 kts | 265° |
| 2026-05-05 00:53 | -34.96244 | -56.50197 | 15590 ft | 378 kts | 265° |
| 2026-05-05 00:53 | -34.96421 | -56.53408 | 16046 ft | 380 kts | 265° |
| 2026-05-05 00:54 | -34.96599 | -56.56641 | 16482 ft | 382 kts | 265° |
| 2026-05-05 00:54 | -34.96777 | -56.59891 | 16937 ft | 383 kts | 265° |
| 2026-05-05 00:54 | -34.96952 | -56.63104 | 17388 ft | 384 kts | 265° |
| 2026-05-05 00:54 | -34.97129 | -56.66364 | 17793 ft | 386 kts | 265° |
| 2026-05-05 00:55 | -34.97306 | -56.69649 | 18187 ft | 388 kts | 265° |
| 2026-05-05 00:55 | -34.97483 | -56.72932 | 18527 ft | 389 kts | 265° |
| 2026-05-05 00:55 | -34.97659 | -56.76237 | 18859 ft | 391 kts | 265° |
| 2026-05-05 00:55 | -34.97833 | -56.79514 | 19205 ft | 392 kts | 265° |
| 2026-05-05 00:56 | -34.98009 | -56.82841 | 19572 ft | 392 kts | 265° |
| 2026-05-05 00:56 | -34.98184 | -56.86160 | 19938 ft | 393 kts | 265° |
| 2026-05-05 00:56 | -34.98342 | -56.89531 | 19939 ft | 401 kts | 267° |
| 2026-05-05 00:56 | -34.98385 | -56.92956 | 19951 ft | 406 kts | 269° |
| 2026-05-05 00:57 | -34.98365 | -56.96359 | 19943 ft | 404 kts | 269° |
| 2026-05-05 00:57 | -34.98325 | -56.99799 | 19947 ft | 403 kts | 270° |
| 2026-05-05 00:57 | -34.98285 | -57.03236 | 19951 ft | 403 kts | 269° |
| 2026-05-05 00:57 | -34.98253 | -57.06611 | 19949 ft | 403 kts | 269° |
| 2026-05-05 00:58 | -34.98226 | -57.10044 | 19949 ft | 403 kts | 269° |
| 2026-05-05 00:58 | -34.98204 | -57.13468 | 19934 ft | 403 kts | 269° |
| 2026-05-05 00:58 | -34.98184 | -57.16895 | 19941 ft | 403 kts | 269° |
| 2026-05-05 00:58 | -34.98165 | -57.20296 | 19947 ft | 404 kts | 269° |
| 2026-05-05 00:59 | -34.98145 | -57.23723 | 19947 ft | 404 kts | 269° |
| 2026-05-05 00:59 | -34.98126 | -57.27116 | 19948 ft | 404 kts | 269° |
| 2026-05-05 00:59 | -34.98104 | -57.30554 | 19944 ft | 405 kts | 269° |
| 2026-05-05 00:59 | -34.98082 | -57.33986 | 19944 ft | 405 kts | 269° |
| 2026-05-05 01:00 | -34.98059 | -57.37426 | 19946 ft | 404 kts | 269° |
| 2026-05-05 01:00 | -34.98044 | -57.39707 | 19945 ft | 404 kts | 269° |
| 2026-05-05 01:00 | -34.98010 | -57.44249 | 19941 ft | 404 kts | 269° |
| 2026-05-05 01:00 | -34.97984 | -57.47674 | 19943 ft | 403 kts | 269° |
| 2026-05-05 01:01 | -34.97965 | -57.49981 | 19939 ft | 403 kts | 269° |
| 2026-05-05 01:01 | -34.97938 | -57.53360 | 19946 ft | 402 kts | 269° |
| 2026-05-05 01:01 | -34.97910 | -57.56772 | 19948 ft | 402 kts | 269° |
| 2026-05-05 01:01 | -34.97870 | -57.61301 | 19950 ft | 402 kts | 269° |
| 2026-05-05 01:02 | -34.97850 | -57.63605 | 19954 ft | 402 kts | 269° |
| 2026-05-05 01:02 | -34.97819 | -57.66983 | 19967 ft | 402 kts | 269° |
| 2026-05-05 01:02 | -34.97786 | -57.70418 | 19962 ft | 402 kts | 270° |
| 2026-05-05 01:02 | -34.97753 | -57.73779 | 19960 ft | 402 kts | 270° |
| 2026-05-05 01:03 | -34.97719 | -57.77188 | 19965 ft | 401 kts | 270° |
| 2026-05-05 01:03 | -34.97684 | -57.80609 | 19968 ft | 401 kts | 270° |
| 2026-05-05 01:03 | -34.97648 | -57.83974 | 19956 ft | 401 kts | 270° |
| 2026-05-05 01:03 | -34.97611 | -57.87406 | 19965 ft | 401 kts | 270° |
| 2026-05-05 01:04 | -34.97428 | -57.90806 | 19951 ft | 404 kts | 279° |
| 2026-05-05 01:04 | -34.95830 | -57.97365 | 19967 ft | 405 kts | 284° |
| 2026-05-05 01:04 | -34.95027 | -58.00673 | 19970 ft | 406 kts | 283° |
| 2026-05-05 01:05 | -34.94239 | -58.03975 | 19960 ft | 402 kts | 283° |
| 2026-05-05 01:05 | -34.93485 | -58.07150 | 19947 ft | 386 kts | 283° |
| 2026-05-05 01:05 | -34.92749 | -58.10258 | 19933 ft | 379 kts | 283° |
| 2026-05-05 01:05 | -34.92018 | -58.13346 | 19916 ft | 379 kts | 283° |
| 2026-05-05 01:06 | -34.91287 | -58.16437 | 19872 ft | 381 kts | 283° |
| 2026-05-05 01:06 | -34.90558 | -58.19511 | 19769 ft | 379 kts | 283° |
| 2026-05-05 01:06 | -34.89823 | -58.22601 | 19682 ft | 378 kts | 283° |
| 2026-05-05 01:06 | -34.89089 | -58.25682 | 19592 ft | 378 kts | 283° |
| 2026-05-05 01:07 | -34.88368 | -58.28697 | 19470 ft | 364 kts | 283° |
| 2026-05-05 01:07 | -34.87562 | -58.31575 | 19330 ft | 353 kts | 291° |
| 2026-05-05 01:07 | -34.86384 | -58.34161 | 19171 ft | 346 kts | 298° |
| 2026-05-05 01:07 | -34.84949 | -58.36489 | 18897 ft | 342 kts | 304° |
| 2026-05-05 01:08 | -34.83467 | -58.38687 | 18602 ft | 337 kts | 304° |
| 2026-05-05 01:08 | -34.81981 | -58.40881 | 18243 ft | 334 kts | 304° |
| 2026-05-05 01:08 | -34.80492 | -58.43086 | 17688 ft | 336 kts | 304° |
| 2026-05-05 01:08 | -34.79024 | -58.45266 | 17155 ft | 336 kts | 303° |
| 2026-05-05 01:09 | -34.77534 | -58.47483 | 16623 ft | 337 kts | 303° |
| 2026-05-05 01:09 | -34.76049 | -58.49694 | 16113 ft | 338 kts | 303° |
| 2026-05-05 01:09 | -34.74581 | -58.51879 | 15522 ft | 335 kts | 303° |
| 2026-05-05 01:09 | -34.73109 | -58.54069 | 14938 ft | 331 kts | 303° |
| 2026-05-05 01:10 | -34.71653 | -58.56234 | 14368 ft | 327 kts | 303° |
| 2026-05-05 01:10 | -34.70222 | -58.58363 | 13813 ft | 323 kts | 303° |
| 2026-05-05 01:10 | -34.68818 | -58.60452 | 13204 ft | 320 kts | 303° |
| 2026-05-05 01:10 | -34.67413 | -58.62540 | 12597 ft | 317 kts | 303° |
| 2026-05-05 01:11 | -34.66023 | -58.64608 | 11997 ft | 314 kts | 303° |
| 2026-05-05 01:11 | -34.64636 | -58.66667 | 11411 ft | 312 kts | 304° |
| 2026-05-05 01:11 | -34.63269 | -58.68697 | 10844 ft | 309 kts | 304° |
| 2026-05-05 01:11 | -34.61927 | -58.70688 | 10275 ft | 306 kts | 304° |
| 2026-05-05 01:12 | -34.60582 | -58.72683 | 9709 ft | 304 kts | 304° |
| 2026-05-05 01:12 | -34.59248 | -58.74660 | 9100 ft | 302 kts | 305° |
| 2026-05-05 01:12 | -34.57910 | -58.76624 | 8498 ft | 300 kts | 309° |
| 2026-05-05 01:12 | -34.56220 | -58.78147 | 7882 ft | 307 kts | 333° |
| 2026-05-05 01:13 | -34.54175 | -58.78773 | 7327 ft | 311 kts | 354° |
| 2026-05-05 01:13 | -34.52012 | -58.78625 | 6785 ft | 310 kts | 4° |
| 2026-05-05 01:13 | -34.49861 | -58.78339 | 6213 ft | 308 kts | 4° |
| 2026-05-05 01:13 | -34.47728 | -58.78057 | 5609 ft | 306 kts | 4° |
| 2026-05-05 01:14 | -34.45641 | -58.77797 | 5037 ft | 304 kts | 3° |
| 2026-05-05 01:14 | -34.43535 | -58.77542 | 4432 ft | 302 kts | 3° |
| 2026-05-05 01:14 | -34.41472 | -58.77100 | 3800 ft | 303 kts | 19° |
| 2026-05-05 01:14 | -34.39758 | -58.75654 | 3483 ft | 296 kts | 47° |
| 2026-05-05 01:15 | -34.38753 | -58.73624 | 3507 ft | 278 kts | 69° |
| 2026-05-05 01:15 | -34.38454 | -58.71375 | 3486 ft | 267 kts | 91° |
| 2026-05-05 01:15 | -34.38796 | -58.69182 | 3485 ft | 266 kts | 109° |
| 2026-05-05 01:15 | -34.39697 | -58.67223 | 3484 ft | 269 kts | 130° |
| 2026-05-05 01:16 | -34.40967 | -58.65591 | 3505 ft | 268 kts | 134° |
| 2026-05-05 01:16 | -34.42272 | -58.63972 | 3344 ft | 270 kts | 134° |
| 2026-05-05 01:16 | -34.43587 | -58.62344 | 3055 ft | 271 kts | 134° |
| 2026-05-05 01:16 | -34.44890 | -58.60730 | 2991 ft | 262 kts | 134° |
| 2026-05-05 01:17 | -34.46129 | -58.59161 | 2953 ft | 251 kts | 129° |
| 2026-05-05 01:17 | -34.47122 | -58.57488 | 2676 ft | 240 kts | 122° |
| 2026-05-05 01:17 | -34.48001 | -58.55852 | 2437 ft | 226 kts | 121° |
| 2026-05-05 01:17 | -34.48840 | -58.54312 | 2219 ft | 208 kts | 121° |
| 2026-05-05 01:18 | -34.49604 | -58.52928 | 2064 ft | 187 kts | 121° |
| 2026-05-05 01:18 | -34.50294 | -58.51686 | 1841 ft | 170 kts | 121° |
| 2026-05-05 01:18 | -34.50929 | -58.50540 | 1594 ft | 158 kts | 120° |
| 2026-05-05 01:18 | -34.51538 | -58.49442 | 1374 ft | 157 kts | 120° |
| 2026-05-05 01:19 | -34.52150 | -58.48339 | 1178 ft | 157 kts | 120° |
| 2026-05-05 01:19 | -34.52746 | -58.47265 | 980 ft | 153 kts | 120° |
| 2026-05-05 01:19 | -34.53347 | -58.46179 | 798 ft | 155 kts | 121° |
| 2026-05-05 01:19 | -34.53952 | -58.45105 | 580 ft | 156 kts | 123° |
| 2026-05-05 01:20 | -34.54557 | -58.44010 | 369 ft | 157 kts | 125° |
| 2026-05-05 01:20 | -34.55167 | -58.42937 | 131 ft | 150 kts | 124° |
| 2026-05-05 01:20 | -34.55725 | -58.41933 | 28 ft | 122 kts | 123° |
| 2026-05-05 01:20 | -34.55996 | -58.41448 | 24 ft | 50 kts | 124° |
| 2026-05-05 01:21 | -34.56162 | -58.41146 | 28 ft | 22 kts | 124° |
| 2026-05-05 01:21 | -34.56222 | -58.40976 | 24 ft | 22 kts | 110° |
| 2026-05-05 01:21 | -34.56235 | -58.40891 | 24 ft | 0 kts | 91° |
| 2026-05-05 01:21 | -34.56235 | -58.40888 | 24 ft | 1 kts | 91° |
| 2026-05-05 01:22 | -34.56235 | -58.40845 | 24 ft | 7 kts | 90° |
| 2026-05-05 01:22 | -34.56237 | -58.40815 | 27 ft | 8 kts | 95° |
| 2026-05-05 01:22 | -34.56214 | -58.40761 | 27 ft | 8 kts | 330° |
| 2026-05-05 01:22 | -34.56174 | -58.40839 | 27 ft | 12 kts | 283° |
| 2026-05-05 01:23 | -34.56149 | -58.40936 | 26 ft | 13 kts | 301° |
| 2026-05-05 01:23 | -34.56098 | -58.41023 | 27 ft | 13 kts | 307° |
| 2026-05-05 01:23 | -34.56046 | -58.41108 | 26 ft | 12 kts | 306° |
| 2026-05-05 01:23 | -34.55994 | -58.41191 | 25 ft | 12 kts | 308° |
| 2026-05-05 01:24 | -34.55944 | -58.41269 | 24 ft | 11 kts | 306° |
| 2026-05-05 01:24 | -34.55897 | -58.41304 | 26 ft | 1 kts | 4° |
| 2026-05-05 01:24 | -34.55888 | -58.41301 | 27 ft | 1 kts | 18° |
| 2026-05-05 01:24 | -34.55880 | -58.41296 | 29 ft | 1 kts | 26° |
| 2026-05-05 01:25 | -34.55847 | -58.41284 | 24 ft | 6 kts | 356° |
| 2026-05-05 01:25 | -34.55820 | -58.41311 | 25 ft | 5 kts | 299° |
| 2026-05-05 01:25 | -34.55805 | -58.41343 | 27 ft | 3 kts | 303° |
| 2026-05-05 01:25 | -34.55785 | -58.41347 | 26 ft | 3 kts | 18° |
| 2026-05-05 01:26 | -34.55770 | -58.41334 | 24 ft | 2 kts | 36° |
| 2026-05-05 01:26 | -34.55761 | -58.41326 | 24 ft | 1 kts | 35° |
| 2026-05-05 01:26 | -34.55760 | -58.41325 | 24 ft | 0 kts | 35° |